Time;durP1;ratioP1;P1;durP2;ratioP2;P2;SDS_P1;SDS_P2;PMS_P1;PMS_P2;Temp;Humidity;BMP_temperature;BMP_pressure;BME280_temperature;BME280_humidity;BME280_pressure;Samples;Min_cycle;Max_cycle;Signal;HPM_P1;HPM_P2
2021/01/30 00:00:43;;;;;;;31.48;19.55;;;;;;;-1.75;68.60;99212.62;1780972;80;21236;-55
2021/01/30 00:03:49;;;;;;;27.17;17.65;;;;;;;-1.69;68.47;99210.77;1781217;80;21695;-55
2021/01/30 00:07:02;;;;;;;33.92;20.65;;;;;;;-1.69;68.16;99204.53;1781250;80;21393;-56
2021/01/30 00:10:08;;;;;;;28.62;18.40;;;;;;;-1.70;68.00;99205.02;1781435;80;21397;-55
2021/01/30 00:13:13;;;;;;;35.25;21.55;;;;;;;-1.71;67.89;99206.48;1781338;80;21208;-55
2021/01/30 00:16:21;;;;;;;28.92;18.05;;;;;;;-1.71;67.75;99220.76;1773900;80;21358;-55
2021/01/30 00:19:28;;;;;;;27.00;16.15;;;;;;;-1.73;67.45;99228.07;1811501;79;21207;-56
2021/01/30 00:22:33;;;;;;;26.27;16.85;;;;;;;-1.79;67.19;99228.59;1801044;79;21776;-54
2021/01/30 00:25:41;;;;;;;30.10;17.67;;;;;;;-1.86;67.00;99232.77;1788164;79;21788;-54
2021/01/30 00:28:48;;;;;;;27.82;16.60;;;;;;;-1.96;66.92;99237.17;1802316;79;21706;-55
2021/01/30 00:31:55;;;;;;;28.80;18.32;;;;;;;-2.02;66.93;99238.16;1802489;79;21339;-55
2021/01/30 00:35:01;;;;;;;29.30;16.97;;;;;;;-2.09;66.93;99239.15;1802086;79;21351;-55
2021/01/30 00:38:06;;;;;;;34.38;20.50;;;;;;;-2.12;67.00;99242.08;1802261;79;21362;-55
2021/01/30 00:41:12;;;;;;;36.70;22.02;;;;;;;-2.17;67.02;99241.59;1802316;79;21367;-55
2021/01/30 00:44:17;;;;;;;36.85;22.20;;;;;;;-2.20;67.13;99246.34;1778904;79;21189;-55
2021/01/30 00:47:22;;;;;;;37.88;22.25;;;;;;;-2.20;67.16;99239.64;1747028;82;21359;-55
2021/01/30 00:50:29;;;;;;;32.38;20.45;;;;;;;-2.21;67.18;99242.84;1802765;79;21395;-54
2021/01/30 00:53:35;;;;;;;32.23;19.82;;;;;;;-2.19;67.21;99242.70;1747357;82;21711;-56
2021/01/30 00:56:41;;;;;;;31.37;18.92;;;;;;;-2.17;67.12;99240.25;1802951;79;21448;-55
2021/01/30 00:59:51;;;;;;;28.10;17.57;;;;;;;-2.20;66.94;99244.52;1747499;82;21429;-54
2021/01/30 01:02:58;;;;;;;36.05;21.95;;;;;;;-2.24;66.84;99247.58;1802781;79;21382;-56
2021/01/30 01:06:06;;;;;;;27.13;17.12;;;;;;;-2.31;66.71;99247.22;1747424;82;21260;-55
2021/01/30 01:09:12;;;;;;;31.62;18.73;;;;;;;-2.33;66.55;99249.67;1781519;79;21251;-55
2021/01/30 01:12:17;;;;;;;37.90;19.48;;;;;;;-2.39;66.34;99259.03;1813595;79;21190;-56
2021/01/30 01:15:25;;;;;;;36.40;19.95;;;;;;;-2.47;66.20;99262.81;1799545;78;21359;-54
2021/01/30 01:18:31;;;;;;;30.77;17.37;;;;;;;-2.55;66.23;99266.58;1813680;79;21248;-55
2021/01/30 01:21:37;;;;;;;28.15;16.95;;;;;;;-2.61;66.27;99267.08;1799469;79;22002;-56
2021/01/30 01:24:42;;;;;;;25.08;16.20;;;;;;;-2.64;66.30;99265.98;1811568;79;21247;-56
2021/01/30 01:27:48;;;;;;;28.52;16.97;;;;;;;-2.65;66.31;99271.45;1804739;79;21194;-56
2021/01/30 01:30:54;;;;;;;24.82;15.60;;;;;;;-2.70;66.23;99269.14;1778237;80;21419;-56
2021/01/30 01:34:00;;;;;;;23.70;15.45;;;;;;;-2.73;66.21;99269.86;1804240;79;21177;-55
2021/01/30 01:37:09;;;;;;;25.55;16.17;;;;;;;-2.76;66.27;99272.78;1807839;79;21259;-54
2021/01/30 01:40:17;;;;;;;25.05;16.02;;;;;;;-2.79;66.30;99280.55;1804757;79;21216;-56
2021/01/30 01:43:27;;;;;;;25.62;15.88;;;;;;;-2.78;66.37;99284.95;1778198;80;21347;-55
2021/01/30 01:46:36;;;;;;;27.87;16.35;;;;;;;-2.76;66.37;99287.52;1804540;79;21240;-57
2021/01/30 01:49:44;;;;;;;25.35;17.05;;;;;;;-2.77;66.23;99297.36;1778071;80;21354;-56
2021/01/30 01:52:49;;;;;;;25.45;16.02;;;;;;;-2.80;66.14;99293.58;1804578;79;21587;-56
2021/01/30 01:56:05;;;;;;;27.17;17.35;;;;;;;-2.79;66.16;99301.97;1778235;80;21426;-56
2021/01/30 01:59:21;;;;;;;24.67;15.68;;;;;;;-2.81;66.02;99301.26;1804855;79;21188;-56
2021/01/30 02:02:32;;;;;;;25.95;15.45;;;;;;;-2.83;65.78;99300.52;1778463;80;21354;-55
2021/01/30 02:05:42;;;;;;;27.58;17.32;;;;;;;-2.90;65.62;99305.13;1805259;79;21185;-55
2021/01/30 02:08:47;;;;;;;29.77;17.70;;;;;;;-3.01;65.35;99307.27;1804718;79;21342;-55
2021/01/30 02:12:17;;;;;;;31.62;19.52;;;;;;;-3.11;65.38;99310.30;1778678;80;21390;-55
2021/01/30 02:15:23;;;;;;;33.02;19.52;;;;;;;-3.18;65.54;99314.41;1804892;79;21200;-55
2021/01/30 02:18:43;;;;;;;37.42;21.10;;;;;;;-3.22;65.65;99314.28;1778455;80;21402;-56
2021/01/30 02:22:08;;;;;;;38.70;21.30;;;;;;;-3.24;65.81;99314.87;1804690;79;21291;-55
2021/01/30 02:25:48;;;;;;;38.23;21.25;;;;;;;-3.25;65.65;99317.20;1776183;80;21418;-56
2021/01/30 02:29:05;;;;;;;30.25;18.80;;;;;;;-3.26;65.63;99319.48;1805238;79;21165;-56
2021/01/30 02:32:34;;;;;;;30.30;17.42;;;;;;;-3.29;65.51;99329.08;1773665;80;21256;-55
2021/01/30 02:36:28;;;;;;;27.87;17.02;;;;;;;-3.30;65.50;99331.39;1805089;79;21244;-57
2021/01/30 02:40:00;;;;;;;33.58;19.82;;;;;;;-3.30;65.46;99320.19;1752489;80;21402;-55
2021/01/30 02:43:12;;;;;;;30.88;17.20;;;;;;;-3.29;65.37;99311.22;1791811;80;21232;-56
2021/01/30 02:46:31;;;;;;;52.43;25.80;;;;;;;-3.34;65.07;99325.89;1791974;80;21740;-55
2021/01/30 02:49:39;;;;;;;47.62;25.35;;;;;;;-3.39;64.89;99326.71;1791680;80;21381;-55
2021/01/30 02:52:45;;;;;;;46.28;24.70;;;;;;;-3.45;64.77;99332.05;1791685;80;21358;-56
2021/01/30 02:55:50;;;;;;;34.00;20.45;;;;;;;-3.50;64.59;99332.88;1792045;80;21371;-56
2021/01/30 02:59:11;;;;;;;24.63;15.70;;;;;;;-3.56;64.41;99332.47;1791901;80;21871;-56
2021/01/30 03:02:16;;;;;;;31.10;18.15;;;;;;;-3.67;64.32;99337.28;1791823;80;21843;-56
2021/01/30 03:05:22;;;;;;;37.15;20.30;;;;;;;-3.75;64.29;99338.33;1791721;80;21420;-56
2021/01/30 03:08:48;;;;;;;30.20;18.45;;;;;;;-3.81;64.37;99334.77;1791716;80;21350;-56
2021/01/30 03:12:19;;;;;;;30.20;17.37;;;;;;;-3.83;64.44;99338.50;1791926;80;21392;-55
2021/01/30 03:15:48;;;;;;;30.77;18.07;;;;;;;-3.84;64.42;99334.14;1752295;80;21354;-55
2021/01/30 03:19:15;;;;;;;42.80;23.15;;;;;;;-3.86;64.34;99341.41;1751066;81;21892;-56
2021/01/30 03:22:24;;;;;;;37.42;19.80;;;;;;;-3.95;64.16;99339.41;1792547;79;21370;-55
2021/01/30 03:25:33;;;;;;;29.50;16.97;;;;;;;-4.08;63.99;99337.24;1764196;77;21303;-55
2021/01/30 03:28:39;;;;;;;37.00;19.55;;;;;;;-4.19;63.81;99357.19;1805025;79;21227;-56
2021/01/30 03:31:46;;;;;;;27.67;16.85;;;;;;;-4.27;63.89;99345.72;1752453;81;21256;-56
2021/01/30 03:34:54;;;;;;;29.12;17.42;;;;;;;-4.38;63.72;99351.44;1792019;80;21219;-55
2021/01/30 03:37:59;;;;;;;27.67;15.70;;;;;;;-4.45;63.88;99347.48;1791827;80;21385;-56
2021/01/30 03:41:04;;;;;;;27.65;17.85;;;;;;;-4.49;63.93;99346.87;1791649;80;21275;-55
2021/01/30 03:44:11;;;;;;;26.75;16.55;;;;;;;-4.46;64.37;99357.80;1792084;80;21354;-56
2021/01/30 03:47:16;;;;;;;29.25;18.10;;;;;;;-4.47;64.10;99343.59;1792069;80;21207;-58
2021/01/30 03:50:22;;;;;;;33.28;18.85;;;;;;;-4.48;64.16;99349.03;1791828;80;21404;-56
2021/01/30 03:53:29;;;;;;;35.08;21.65;;;;;;;-4.49;64.47;99343.33;1791871;80;21417;-56
2021/01/30 03:56:34;;;;;;;59.58;32.38;;;;;;;-4.46;64.86;99345.78;1792166;80;21738;-56
2021/01/30 03:59:40;;;;;;;40.60;24.07;;;;;;;-4.40;65.10;99342.67;1791923;80;21498;-57
2021/01/30 04:02:47;;;;;;;41.30;25.27;;;;;;;-4.33;65.32;99335.48;1791968;80;21367;-56
2021/01/30 04:05:52;;;;;;;43.08;24.82;;;;;;;-4.31;65.28;99346.89;1791860;80;21374;-57
2021/01/30 04:08:57;;;;;;;43.08;24.72;;;;;;;-4.27;65.01;99351.53;1791812;80;21358;-56
2021/01/30 04:12:02;;;;;;;38.92;22.07;;;;;;;-4.22;64.79;99357.41;1792122;80;21252;-57
2021/01/30 04:15:08;;;;;;;39.38;22.58;;;;;;;-4.22;64.29;99353.41;1792248;80;21409;-56
2021/01/30 04:18:18;;;;;;;47.62;28.23;;;;;;;-4.25;63.75;99346.45;1792108;80;21303;-55
2021/01/30 04:21:24;;;;;;;46.35;28.85;;;;;;;-4.32;63.62;99350.53;1791739;80;21219;-55
2021/01/30 04:24:30;;;;;;;54.45;31.55;;;;;;;-4.39;63.75;99344.41;1791563;80;21358;-55
2021/01/30 04:27:35;;;;;;;53.42;30.85;;;;;;;-4.42;64.02;99352.13;1785876;78;21410;-56
2021/01/30 04:30:40;;;;;;;54.75;29.85;;;;;;;-4.46;64.25;99347.12;1780820;80;21764;-57
2021/01/30 04:33:46;;;;;;;47.50;27.75;;;;;;;-4.50;64.18;99345.64;1780819;80;21402;-55
2021/01/30 04:36:52;;;;;;;48.38;27.45;;;;;;;-4.50;63.95;99347.81;1780904;80;21338;-55
2021/01/30 04:39:58;;;;;;;39.08;24.75;;;;;;;-4.50;63.86;99342.47;1780864;80;21208;-55
2021/01/30 04:43:11;;;;;;;61.15;31.40;;;;;;;-4.47;63.55;99358.77;1780807;80;21278;-56
2021/01/30 04:46:32;;;;;;;116.30;49.13;;;;;;;-4.53;63.08;99353.87;1746366;82;21283;-57
2021/01/30 04:50:10;;;;;;;119.47;51.83;;;;;;;-4.63;62.55;99354.48;1804711;78;21220;-56
2021/01/30 04:53:25;;;;;;;227.43;90.22;;;;;;;-4.72;62.50;99361.80;1778302;80;21216;-56
2021/01/30 04:56:55;;;;;;;209.77;79.67;;;;;;;-4.81;62.28;99362.45;1803937;79;21188;-56
2021/01/30 05:00:38;;;;;;;191.47;75.90;;;;;;;-4.87;62.12;99361.51;1804703;78;21240;-56
2021/01/30 05:04:07;;;;;;;131.90;52.35;;;;;;;-4.89;62.33;99373.26;1778119;80;21366;-56
2021/01/30 05:07:30;;;;;;;137.25;57.43;;;;;;;-4.84;62.54;99372.47;1804616;79;21272;-56
2021/01/30 05:10:48;;;;;;;142.80;57.40;;;;;;;-4.81;62.48;99365.59;1804629;79;21251;-50
2021/01/30 05:14:18;;;;;;;144.17;58.05;;;;;;;-4.83;62.17;99369.70;1751883;82;21216;-54
2021/01/30 05:17:33;;;;;;;134.35;57.75;;;;;;;-4.84;62.13;99365.33;1786659;80;21361;-55
2021/01/30 05:20:43;;;;;;;129.55;56.13;;;;;;;-4.80;62.14;99369.48;1786607;79;21397;-55
2021/01/30 05:23:51;;;;;;;127.00;54.93;;;;;;;-4.79;62.17;99367.68;1786712;80;21331;-54
2021/01/30 05:27:22;;;;;;;114.72;51.05;;;;;;;-4.78;62.11;99362.70;1786635;80;21390;-54
2021/01/30 05:31:08;;;;;;;98.40;46.35;;;;;;;-4.75;62.49;99362.02;1777012;79;21366;-54
2021/01/30 05:34:18;;;;;;;83.25;38.98;;;;;;;-4.74;62.41;99356.21;1819746;77;21855;-54
2021/01/30 05:37:29;;;;;;;88.95;41.42;;;;;;;-4.72;62.92;99371.14;1819536;79;21212;-55
2021/01/30 05:40:48;;;;;;;79.70;38.85;;;;;;;-4.65;62.95;99381.76;1808827;78;21263;-54
2021/01/30 05:44:02;;;;;;;79.80;40.03;;;;;;;-4.54;62.71;99382.84;1819542;79;21370;-54
2021/01/30 05:47:06;;;;;;;;;;;;;;;-4.42;62.69;99387.34;1811465;79;21291;-54
2021/01/30 05:50:31;;;;;;;67.85;35.20;;;;;;;-4.38;62.31;99384.35;1819669;79;20295;-54
2021/01/30 05:53:36;;;;;;;82.27;39.60;;;;;;;-4.31;62.36;99385.61;1808886;79;21307;-56
2021/01/30 05:56:48;;;;;;;78.78;37.00;;;;;;;-4.20;62.15;99384.88;1809021;78;21323;-55
2021/01/30 06:00:01;;;;;;;82.90;37.73;;;;;;;-4.14;62.14;99384.44;1819596;79;21385;-55
2021/01/30 06:03:18;;;;;;;97.10;40.90;;;;;;;-4.00;62.16;99381.64;1809046;79;21232;-54
2021/01/30 06:06:23;;;;;;;82.78;38.28;;;;;;;-3.94;61.86;99382.52;1820031;78;21393;-54
2021/01/30 06:09:47;;;;;;;74.58;35.75;;;;;;;-3.85;62.03;99367.19;1808660;78;21362;-55
2021/01/30 06:12:53;;;;;;;67.03;32.60;;;;;;;-3.76;62.18;99374.53;1819492;79;21326;-55
2021/01/30 06:16:05;;;;;;;67.90;31.85;;;;;;;-3.59;62.09;99368.33;1810641;79;21192;-55
2021/01/30 06:19:29;;;;;;;59.65;29.77;;;;;;;-3.41;62.05;99391.02;1816271;79;21251;-54
2021/01/30 06:22:35;;;;;;;57.55;28.47;;;;;;;-3.21;61.78;99397.11;1815946;79;21814;-54
2021/01/30 06:25:46;;;;;;;59.88;31.48;;;;;;;-3.01;61.50;99402.29;1816107;77;21211;-54
2021/01/30 06:28:53;;;;;;;42.73;23.10;;;;;;;-2.87;61.38;99393.23;1784858;79;21721;-54
2021/01/30 06:31:59;;;;;;;44.58;23.05;;;;;;;-2.71;61.79;99391.11;1786008;80;21196;-55
2021/01/30 06:35:27;;;;;;;39.78;22.98;;;;;;;-2.48;62.36;99392.86;1786161;80;21342;-54
2021/01/30 06:38:40;;;;;;;31.00;20.52;;;;;;;-2.25;62.48;99390.59;1786145;80;21192;-54
2021/01/30 06:41:46;;;;;;;30.68;18.10;;;;;;;-1.98;62.54;99393.28;1786025;80;21420;-54
2021/01/30 06:44:51;;;;;;;29.05;18.23;;;;;;;-1.75;62.51;99401.70;1782732;80;21362;-54
2021/01/30 06:47:56;;;;;;;30.55;18.98;;;;;;;-1.50;62.42;99399.22;1786194;80;21362;-55
2021/01/30 06:51:01;;;;;;;29.32;19.50;;;;;;;-1.31;61.95;99391.85;1786302;80;21354;-55
2021/01/30 06:54:32;;;;;;;35.15;21.35;;;;;;;-1.10;61.79;99395.47;1786236;80;21350;-54
2021/01/30 06:57:37;;;;;;;35.38;21.57;;;;;;;-0.90;61.45;99398.67;1786223;80;21839;-54
2021/01/30 07:00:45;;;;;;;37.35;20.30;;;;;;;-0.70;61.10;99400.05;1783972;80;21342;-54
2021/01/30 07:04:18;;;;;;;33.95;20.37;;;;;;;-0.60;60.94;99402.33;1786397;80;21358;-54
2021/01/30 07:07:35;;;;;;;33.78;19.52;;;;;;;-0.47;60.77;99393.59;1786318;80;21195;-54
2021/01/30 07:10:54;;;;;;;34.33;18.82;;;;;;;-0.49;60.26;99392.03;1786095;80;21459;-53
2021/01/30 07:14:09;;;;;;;30.43;19.30;;;;;;;-0.65;60.42;99404.55;1786657;80;21192;-54
2021/01/30 07:17:22;;;;;;;34.27;21.57;;;;;;;-0.69;60.75;99404.46;1792851;78;21344;-54
2021/01/30 07:20:58;;;;;;;30.55;18.30;;;;;;;-0.63;60.90;99395.02;1784784;80;21377;-54
2021/01/30 07:24:33;;;;;;;31.07;18.35;;;;;;;-0.49;60.93;99391.52;1785942;80;22084;-54
2021/01/30 07:27:47;;;;;;;31.65;19.52;;;;;;;-0.33;60.92;99399.13;1785083;80;21219;-54
2021/01/30 07:30:58;;;;;;;27.20;17.67;;;;;;;-0.07;60.97;99396.39;1780744;80;21741;-55
2021/01/30 07:34:34;;;;;;;33.15;19.30;;;;;;;0.11;60.52;99393.45;1799239;79;21390;-54
2021/01/30 07:38:03;;;;;;;25.40;17.15;;;;;;;0.20;60.43;99392.63;1799293;79;21354;-55
2021/01/30 07:41:15;;;;;;;26.62;16.00;;;;;;;0.37;60.11;99400.06;1799133;78;21221;-54
2021/01/30 07:44:25;;;;;;;27.52;17.45;;;;;;;0.55;59.86;99411.90;1774738;80;21343;-56
2021/01/30 07:47:34;;;;;;;27.07;16.40;;;;;;;0.74;59.57;99403.88;1798710;80;21621;-54
2021/01/30 07:50:45;;;;;;;27.02;16.07;;;;;;;0.89;59.22;99396.23;1791262;79;21864;-55
2021/01/30 07:53:50;;;;;;;25.48;16.17;;;;;;;0.94;59.31;99382.71;1767078;81;21334;-55
2021/01/30 07:57:25;;;;;;;25.37;16.25;;;;;;;1.10;59.32;99391.09;1767182;81;21363;-55
2021/01/30 08:00:37;;;;;;;30.82;17.90;;;;;;;1.21;59.33;99383.36;1767678;80;21467;-55
2021/01/30 08:04:16;;;;;;;27.98;17.05;;;;;;;1.29;59.29;99376.77;1761687;80;21939;-55
2021/01/30 08:07:47;;;;;;;25.17;16.12;;;;;;;1.38;59.21;99374.55;1783514;79;21357;-54
2021/01/30 08:11:08;;;;;;;23.60;15.88;;;;;;;1.52;59.28;99379.02;1771561;80;21216;-54
2021/01/30 08:14:51;;;;;;;26.60;16.20;;;;;;;1.72;58.95;99366.37;1770862;81;21267;-54
2021/01/30 08:18:15;;;;;;;21.02;15.30;;;;;;;1.89;58.79;99372.88;1770509;81;21196;-54
2021/01/30 08:21:49;;;;;;;23.27;16.73;;;;;;;2.12;58.46;99379.61;1770389;81;21209;-56
2021/01/30 08:25:05;;;;;;;24.82;17.17;;;;;;;2.26;58.22;99388.09;1771051;81;21357;-55
2021/01/30 08:28:28;;;;;;;25.48;17.15;;;;;;;2.35;57.87;99386.33;1770692;81;21267;-55
2021/01/30 08:31:45;;;;;;;24.60;16.97;;;;;;;2.36;57.80;99382.13;1768535;81;21374;-55
2021/01/30 08:34:51;;;;;;;27.10;16.60;;;;;;;2.45;57.77;99377.70;1767257;81;21244;-53
2021/01/30 08:38:28;;;;;;;23.45;16.17;;;;;;;2.49;57.81;99380.47;1767082;81;21212;-54
2021/01/30 08:41:47;;;;;;;26.33;17.42;;;;;;;2.57;57.60;99363.84;1721505;83;21453;-54
2021/01/30 08:45:14;;;;;;;22.42;14.98;;;;;;;2.58;57.50;99370.11;1781892;80;21208;-54
2021/01/30 08:48:38;;;;;;;22.07;14.83;;;;;;;2.68;57.75;99374.97;1752869;81;21702;-54
2021/01/30 08:51:44;;;;;;;23.77;15.28;;;;;;;2.92;57.55;99373.87;1814302;79;21370;-54
2021/01/30 08:54:50;;;;;;;21.12;15.10;;;;;;;3.12;57.27;99361.08;1814116;79;21363;-54
2021/01/30 08:57:56;;;;;;;22.32;14.87;;;;;;;3.35;57.29;99346.94;1814226;79;21311;-54
2021/01/30 09:01:02;;;;;;;20.85;13.80;;;;;;;3.69;56.73;99341.64;1814043;79;21432;-55
2021/01/30 09:04:12;;;;;;;21.02;13.50;;;;;;;3.83;55.67;99339.20;1813971;79;21197;-54
2021/01/30 09:07:19;;;;;;;21.52;15.13;;;;;;;3.77;55.30;99341.20;1752679;82;21389;-54
2021/01/30 09:10:38;;;;;;;25.20;16.25;;;;;;;3.75;55.27;99318.85;1792732;79;21356;-54
2021/01/30 09:14:03;;;;;;;28.10;16.17;;;;;;;3.95;55.41;99328.45;1752305;81;21749;-54
2021/01/30 09:17:41;;;;;;;25.30;17.73;;;;;;;4.04;54.90;99328.00;1813830;79;21339;-54
2021/01/30 09:21:06;;;;;;;25.52;16.67;;;;;;;3.98;54.73;99326.77;1752227;82;21263;-54
2021/01/30 09:24:38;;;;;;;29.18;18.45;;;;;;;4.06;54.85;99325.47;1783973;79;21697;-54
2021/01/30 09:27:47;;;;;;;28.10;16.55;;;;;;;4.20;54.68;99320.80;1779342;80;21177;-54
2021/01/30 09:31:05;;;;;;;23.90;16.00;;;;;;;4.31;54.63;99318.33;1788124;79;21184;-54
2021/01/30 09:34:14;;;;;;;26.17;16.75;;;;;;;4.43;54.45;99317.02;1800834;79;21219;-54
2021/01/30 09:37:41;;;;;;;24.10;15.63;;;;;;;4.55;54.42;99315.20;1805887;79;21796;-54
2021/01/30 09:40:46;;;;;;;22.02;14.75;;;;;;;4.61;53.86;99310.48;1806369;79;21219;-54
2021/01/30 09:43:51;;;;;;;20.25;13.83;;;;;;;4.65;53.88;99307.47;1806264;79;21299;-54
2021/01/30 09:47:00;;;;;;;20.12;13.48;;;;;;;4.69;53.84;99310.17;1778355;79;21235;-54
2021/01/30 09:50:21;;;;;;;21.95;13.88;;;;;;;4.75;54.00;99310.86;1776938;80;21216;-54
2021/01/30 09:53:39;;;;;;;19.60;13.38;;;;;;;4.79;53.75;99317.67;1777297;80;21187;-54
2021/01/30 09:56:44;;;;;;;18.57;13.30;;;;;;;4.83;53.65;99310.89;1777649;80;21345;-54
2021/01/30 09:59:49;;;;;;;21.00;14.73;;;;;;;4.75;53.88;99304.09;1805208;79;21371;-54
2021/01/30 10:02:56;;;;;;;19.30;13.43;;;;;;;4.75;53.84;99300.87;1791792;79;21331;-54
2021/01/30 10:06:02;;;;;;;21.68;14.40;;;;;;;4.77;53.54;99300.71;1797383;79;21331;-53
2021/01/30 10:09:30;;;;;;;18.55;13.08;;;;;;;4.76;53.92;99291.72;1747756;80;21248;-53
2021/01/30 10:12:38;;;;;;;20.77;14.68;;;;;;;4.90;53.69;99293.78;1794141;79;21304;-53
2021/01/30 10:15:44;;;;;;;23.85;16.75;;;;;;;5.13;53.89;99299.42;1762285;79;21189;-53
2021/01/30 10:18:53;;;;;;;21.48;13.43;;;;;;;5.36;53.53;99293.69;1798468;79;21316;-54
2021/01/30 10:21:59;;;;;;;19.12;13.50;;;;;;;5.48;53.24;99293.17;1807200;79;21327;-54
2021/01/30 10:25:07;;;;;;;19.62;13.35;;;;;;;5.59;52.92;99296.89;1808174;79;21354;-54
2021/01/30 10:28:18;;;;;;;18.55;13.00;;;;;;;5.57;52.50;99296.70;1757261;80;21330;-54
2021/01/30 10:31:33;;;;;;;22.55;13.80;;;;;;;5.56;52.62;99289.59;1809258;79;21370;-54
2021/01/30 10:34:41;;;;;;;19.87;13.05;;;;;;;5.68;52.64;99289.57;1804226;79;21562;-54
2021/01/30 10:37:56;;;;;;;21.40;14.18;;;;;;;5.62;52.30;99290.27;1802986;79;21315;-53
2021/01/30 10:41:07;;;;;;;23.60;14.25;;;;;;;5.56;52.32;99280.95;1798960;79;21331;-54
2021/01/30 10:44:13;;;;;;;21.82;14.98;;;;;;;5.51;52.45;99286.04;1799357;79;21331;-53
2021/01/30 10:47:17;;;;;;;20.88;14.98;;;;;;;5.48;52.99;99287.74;1798962;79;21789;-53
2021/01/30 10:50:26;;;;;;;25.43;15.88;;;;;;;5.51;53.57;99287.40;1774358;80;21534;-53
2021/01/30 10:53:47;;;;;;;22.73;15.98;;;;;;;5.59;53.61;99281.97;1799035;79;21393;-53
2021/01/30 10:57:25;;;;;;;25.25;15.43;;;;;;;5.54;53.83;99271.27;1798976;79;21461;-53
2021/01/30 11:00:37;;;;;;;27.05;18.70;;;;;;;5.43;54.14;99267.55;1799199;79;21337;-53
2021/01/30 11:04:03;;;;;;;24.65;17.10;;;;;;;5.45;54.87;99262.80;1777188;80;21330;-53
2021/01/30 11:07:12;;;;;;;26.90;18.00;;;;;;;5.45;55.11;99253.30;1784779;80;21196;-53
2021/01/30 11:10:43;;;;;;;29.82;19.32;;;;;;;5.53;55.26;99256.02;1786886;79;21204;-53
2021/01/30 11:13:50;;;;;;;29.57;20.37;;;;;;;5.46;55.31;99244.13;1779286;80;21179;-53
2021/01/30 11:16:55;;;;;;;33.40;22.17;;;;;;;5.34;55.67;99242.30;1808547;79;21199;-54
2021/01/30 11:20:01;;;;;;;35.43;22.50;;;;;;;5.23;56.15;99241.80;1810341;78;21773;-53
2021/01/30 11:23:08;;;;;;;43.80;26.60;;;;;;;5.12;56.70;99225.86;1776670;80;21593;-54
2021/01/30 11:26:29;;;;;;;42.05;26.10;;;;;;;4.84;57.45;99237.52;1753352;82;21231;-53
2021/01/30 11:29:49;;;;;;;38.45;25.55;;;;;;;4.39;58.68;99231.16;1777877;80;21899;-54
2021/01/30 11:33:09;;;;;;;39.92;24.07;;;;;;;4.08;59.93;99215.16;1777832;80;21389;-54
2021/01/30 11:36:16;;;;;;;43.55;25.70;;;;;;;4.13;60.89;99204.68;1772190;80;21216;-55
2021/01/30 11:39:22;;;;;;;42.08;25.43;;;;;;;4.25;61.31;99198.47;1775039;81;21227;-55
2021/01/30 11:42:28;;;;;;;34.48;21.27;;;;;;;4.40;61.64;99190.88;1718046;82;21286;-54
2021/01/30 11:45:36;;;;;;;33.18;23.00;;;;;;;4.58;61.60;99176.67;1722843;82;21276;-54
2021/01/30 11:48:42;;;;;;;34.92;23.70;;;;;;;4.74;61.42;99175.01;1775252;81;21187;-54
2021/01/30 11:51:47;;;;;;;40.12;23.83;;;;;;;4.81;61.31;99175.52;1775144;81;21375;-54
2021/01/30 11:54:52;;;;;;;37.55;22.98;;;;;;;4.97;61.52;99159.75;1775271;79;21211;-54
2021/01/30 11:57:58;;;;;;;33.50;22.02;;;;;;;5.20;61.31;99164.83;1775496;81;21195;-53
2021/01/30 12:01:03;;;;;;;39.95;24.07;;;;;;;5.30;60.61;99166.83;1780669;79;21212;-53
2021/01/30 12:04:09;;;;;;;46.02;25.70;;;;;;;5.18;60.32;99158.22;1773817;80;21232;-54
2021/01/30 12:07:14;;;;;;;41.70;26.27;;;;;;;5.10;60.46;99150.59;1774195;80;21508;-54
2021/01/30 12:10:19;;;;;;;40.85;26.90;;;;;;;4.98;60.73;99156.04;1774085;80;21225;-54
2021/01/30 12:13:26;;;;;;;42.25;27.77;;;;;;;4.99;60.82;99150.94;1774938;80;21270;-54
2021/01/30 12:16:32;;;;;;;38.67;26.02;;;;;;;4.99;60.93;99155.00;1775421;80;21846;-54
2021/01/30 12:19:37;;;;;;;43.20;27.67;;;;;;;4.94;60.85;99152.81;1774949;80;21352;-53
2021/01/30 12:22:42;;;;;;;44.15;27.80;;;;;;;4.85;61.19;99152.48;1774812;80;21464;-53
2021/01/30 12:25:47;;;;;;;41.90;27.82;;;;;;;4.81;61.53;99138.91;1774192;80;21508;-53
2021/01/30 12:28:55;;;;;;;46.70;29.45;;;;;;;4.70;61.80;99126.20;1774306;80;21186;-54
2021/01/30 12:32:01;;;;;;;46.18;29.05;;;;;;;4.55;62.22;99139.08;1773969;80;21615;-54
2021/01/30 12:35:07;;;;;;;46.53;29.80;;;;;;;4.52;62.57;99131.28;1788013;79;21176;-54
2021/01/30 12:38:12;;;;;;;46.05;29.00;;;;;;;4.49;62.88;99132.98;1751378;82;21330;-55
2021/01/30 12:41:18;;;;;;;44.27;27.67;;;;;;;4.40;63.24;99134.48;1754914;81;21207;-54
2021/01/30 12:44:24;;;;;;;42.13;27.20;;;;;;;4.32;63.56;99125.00;1775964;79;21883;-55
2021/01/30 12:47:36;;;;;;;45.43;26.95;;;;;;;4.30;64.01;99112.12;1751457;82;21451;-54
2021/01/30 12:50:43;;;;;;;37.75;25.88;;;;;;;4.31;64.14;99121.43;1751410;80;21442;-55
2021/01/30 12:53:48;;;;;;;47.48;27.73;;;;;;;4.29;64.40;99103.67;1750178;82;21430;-54
2021/01/30 12:56:54;;;;;;;42.60;27.62;;;;;;;4.35;64.67;99098.44;1750162;82;21265;-54
2021/01/30 13:00:00;;;;;;;43.83;28.73;;;;;;;4.46;64.81;99098.09;1750331;82;21205;-55
2021/01/30 13:03:06;;;;;;;43.17;26.52;;;;;;;4.55;64.76;99093.01;1750204;82;21338;-54
2021/01/30 13:06:15;;;;;;;47.50;26.90;;;;;;;4.59;64.69;99084.04;1750962;82;21342;-54
2021/01/30 13:09:23;;;;;;;47.35;27.98;;;;;;;4.57;64.77;99080.15;1751588;80;21385;-55
2021/01/30 13:12:29;;;;;;;39.30;25.62;;;;;;;4.57;65.08;99077.44;1752976;80;21684;-55
2021/01/30 13:15:35;;;;;;;35.73;24.00;;;;;;;4.54;65.16;99065.59;1754858;80;21215;-55
2021/01/30 13:18:40;;;;;;;43.92;26.80;;;;;;;4.53;65.49;99067.11;1764895;81;22087;-55
2021/01/30 13:21:45;;;;;;;41.70;26.82;;;;;;;4.47;65.51;99056.97;1753299;80;21489;-55
2021/01/30 13:24:52;;;;;;;41.28;23.70;;;;;;;4.38;65.90;99054.75;1740912;81;21243;-55
2021/01/30 13:28:00;;;;;;;35.45;24.15;;;;;;;4.38;66.38;99043.91;1729092;82;21224;-54
2021/01/30 13:31:07;;;;;;;35.03;22.30;;;;;;;4.44;66.44;99036.95;1767389;80;21195;-54
2021/01/30 13:34:14;;;;;;;39.92;23.90;;;;;;;4.43;66.56;99031.21;1751699;80;21355;-54
2021/01/30 13:37:19;;;;;;;37.85;23.70;;;;;;;4.33;66.77;99026.46;1761136;80;21240;-54
2021/01/30 13:40:25;;;;;;;36.65;22.58;;;;;;;4.27;67.18;99019.02;1800047;79;21366;-54
2021/01/30 14:06:44;;;;;;;42.33;24.50;;;;;;;3.64;69.99;98993.09;1742528;78;21772;-54
2021/01/30 14:09:49;;;;;;;36.88;23.10;;;;;;;3.64;70.37;98995.80;1706655;84;21223;-54
2021/01/30 14:12:55;;;;;;;42.67;23.83;;;;;;;3.59;70.67;98995.44;1676542;84;21282;-54
2021/01/30 14:16:01;;;;;;;41.42;24.25;;;;;;;3.54;71.08;98990.17;1715124;83;21474;-54
2021/01/30 14:19:08;;;;;;;45.90;24.63;;;;;;;3.48;71.47;98990.84;1727913;80;21213;-54
2021/01/30 14:22:14;;;;;;;39.33;23.70;;;;;;;3.44;71.77;98981.38;1706620;83;21325;-55
2021/01/30 14:25:18;;;;;;;39.48;24.02;;;;;;;3.43;72.12;98976.96;1706406;84;21379;-55
2021/01/30 14:28:26;;;;;;;41.15;22.48;;;;;;;3.37;72.37;98969.52;1706496;84;21718;-55
2021/01/30 14:31:31;;;;;;;37.85;22.40;;;;;;;3.33;72.67;98956.82;1723977;81;21777;-55
2021/01/30 14:34:36;;;;;;;32.28;21.57;;;;;;;3.32;73.07;98951.09;1730602;83;21208;-54
2021/01/30 14:37:41;;;;;;;33.33;21.12;;;;;;;3.41;73.34;98946.03;1720254;82;21617;-55
2021/01/30 14:40:49;;;;;;;34.53;21.97;;;;;;;3.48;73.40;98948.91;1735442;82;21211;-56
2021/01/30 14:43:54;;;;;;;35.03;21.05;;;;;;;3.48;73.38;98938.09;1735867;82;21241;-55
2021/01/30 14:47:00;;;;;;;34.20;20.95;;;;;;;3.45;73.53;98941.99;1736164;82;21281;-55
2021/01/30 14:50:07;;;;;;;31.42;19.37;;;;;;;3.43;73.71;98929.13;1715906;82;21206;-56
2021/01/30 14:53:14;;;;;;;32.65;20.97;;;;;;;3.45;73.89;98937.08;1736354;82;21806;-55
2021/01/30 14:56:20;;;;;;;31.87;20.45;;;;;;;3.45;74.00;98939.29;1701435;84;21330;-55
2021/01/30 14:59:27;;;;;;;32.80;20.02;;;;;;;3.45;74.15;98932.53;1681182;84;21358;-55
2021/01/30 15:02:33;;;;;;;32.15;20.12;;;;;;;3.41;74.29;98933.86;1670991;85;21890;-55
2021/01/30 15:05:39;;;;;;;29.00;17.35;;;;;;;3.46;74.41;98926.59;1687393;85;21231;-54
2021/01/30 15:08:47;;;;;;;33.65;18.87;;;;;;;3.44;74.50;98924.05;1687908;82;21248;-54
2021/01/30 15:11:52;;;;;;;34.98;21.57;;;;;;;3.42;74.73;98919.84;1701240;84;21247;-55